createdAt,value
2023-01-01T00:00:03.199Z,8.61
2023-01-01T00:00:32.671Z,8.66
2023-01-01T00:01:04.640Z,8.66
2023-01-01T00:01:33.909Z,8.66
2023-01-01T00:01:52.764Z,8.66
2023-01-01T00:02:24.734Z,8.66
2023-01-01T00:02:41.796Z,8.66
2023-01-01T00:03:12.631Z,8.66
2023-01-01T00:03:34.567Z,8.66
2023-01-01T00:04:00.835Z,8.66
2023-01-01T00:04:32.656Z,8.66
2023-01-01T00:05:06.299Z,8.61
2023-01-01T00:05:34.577Z,8.61
2023-01-01T00:05:52.874Z,8.61
2023-01-01T00:06:24.659Z,8.66
2023-01-01T00:06:41.804Z,8.66
2023-01-01T00:07:12.618Z,8.45
2023-01-01T00:07:34.429Z,8.66
2023-01-01T00:08:04.576Z,8.66
2023-01-01T00:08:32.754Z,8.45
2023-01-01T00:09:05.036Z,8.66
2023-01-01T00:09:36.723Z,8.45
2023-01-01T00:10:08.924Z,8.66
2023-01-01T00:10:36.703Z,8.66
2023-01-01T00:10:56.939Z,8.66
2023-01-01T00:11:29.555Z,8.66
2023-01-01T00:12:00.975Z,8.61
2023-01-01T00:12:32.677Z,8.61
2023-01-01T00:13:04.712Z,8.61
2023-01-01T00:13:36.658Z,8.61
2023-01-01T00:14:12.451Z,8.61
2023-01-01T00:14:36.764Z,8.61
2023-01-01T00:14:56.664Z,8.61
2023-01-01T00:15:29.279Z,8.61
2023-01-01T00:16:00.897Z,8.61
2023-01-01T00:16:32.685Z,8.61
2023-01-01T00:17:04.635Z,8.40
2023-01-01T00:17:37.524Z,8.40
2023-01-01T00:18:08.639Z,8.45
2023-01-01T00:18:36.448Z,8.45
2023-01-01T00:18:56.644Z,8.56
2023-01-01T00:19:28.680Z,8.56
2023-01-01T00:20:02.395Z,8.56
2023-01-01T00:20:35.457Z,8.77
2023-01-01T00:21:04.661Z,8.66
2023-01-01T00:21:36.648Z,8.66
2023-01-01T00:22:35.346Z,8.66
2023-01-01T00:22:53.782Z,8.66
2023-01-01T00:22:56.899Z,8.66
2023-01-01T00:23:28.620Z,8.66
2023-01-01T00:24:01.392Z,8.45
2023-01-01T00:24:32.903Z,8.45
2023-01-01T00:25:04.965Z,8.45
2023-01-01T00:25:36.613Z,8.56
2023-01-01T00:26:08.645Z,8.56
2023-01-01T00:26:36.351Z,8.56
2023-01-01T00:26:56.657Z,8.56
2023-01-01T00:27:28.670Z,8.67
2023-01-01T00:28:00.754Z,8.67
2023-01-01T00:28:32.628Z,8.67
2023-01-01T00:29:04.669Z,8.67
2023-01-01T00:29:36.642Z,8.67
2023-01-01T00:30:10.935Z,8.67
2023-01-01T00:30:37.557Z,8.67
2023-01-01T00:30:56.896Z,8.56
2023-01-01T00:31:28.706Z,8.56
2023-01-01T00:32:00.852Z,8.56
2023-01-01T00:32:32.722Z,8.56
2023-01-01T00:33:04.683Z,8.77
2023-01-01T00:33:36.722Z,8.77
2023-01-01T00:34:08.611Z,8.77
2023-01-01T00:34:36.329Z,8.77
2023-01-01T00:34:56.661Z,8.77
2023-01-01T00:35:29.944Z,8.77
2023-01-01T00:36:00.867Z,8.66
2023-01-01T00:36:32.670Z,8.66
2023-01-01T00:37:04.630Z,8.66
2023-01-01T00:37:39.420Z,8.66
2023-01-01T00:38:08.664Z,8.77
2023-01-01T00:38:36.776Z,8.77
2023-01-01T00:38:56.629Z,8.67
2023-01-01T00:39:28.605Z,8.88
2023-01-01T00:40:02.571Z,8.99
2023-01-01T00:40:32.590Z,8.99
2023-01-01T00:41:04.617Z,8.99
2023-01-01T00:41:37.309Z,8.88
2023-01-01T00:42:08.647Z,8.88
2023-01-01T00:42:36.323Z,8.88
2023-01-01T00:42:56.644Z,8.88
2023-01-01T00:43:28.586Z,9.09
2023-01-01T00:44:00.740Z,8.98
2023-01-01T00:44:32.633Z,8.98
2023-01-01T00:45:05.206Z,8.77
2023-01-01T00:45:36.749Z,8.77
2023-01-01T00:46:08.953Z,8.98
2023-01-01T00:46:36.625Z,8.98
2023-01-01T00:46:56.620Z,8.98
2023-01-01T00:47:28.599Z,8.98
2023-01-01T00:48:01.451Z,8.98
2023-01-01T00:48:32.583Z,8.98
2023-01-01T00:49:04.647Z,8.77
2023-01-01T00:49:36.604Z,8.98
2023-01-01T00:50:08.930Z,9.09
2023-01-01T00:50:36.374Z,9.09
2023-01-01T00:50:56.920Z,9.09
2023-01-01T00:51:33.070Z,9.09
2023-01-01T00:52:00.713Z,8.88
2023-01-01T00:52:32.685Z,8.88
2023-01-01T00:53:04.677Z,8.88
2023-01-01T00:53:36.656Z,8.88
2023-01-01T00:54:08.676Z,8.88
2023-01-01T00:54:36.368Z,8.99
2023-01-01T00:54:56.596Z,8.99
2023-01-01T00:55:28.881Z,8.99
2023-01-01T00:56:00.721Z,8.99
2023-01-01T00:56:32.577Z,8.99
2023-01-01T00:57:04.607Z,8.99
2023-01-01T00:57:37.517Z,8.99
2023-01-01T00:58:08.664Z,9.20
2023-01-01T00:58:36.318Z,9.20
2023-01-01T00:59:01.649Z,8.99
2023-01-01T00:59:29.234Z,8.99
2023-01-01T01:00:02.916Z,8.99
2023-01-01T01:00:32.757Z,8.99
2023-01-01T01:01:04.893Z,9.09
2023-01-01T01:01:36.741Z,9.09
2023-01-01T01:02:08.797Z,9.09
2023-01-01T01:02:36.478Z,9.09
2023-01-01T01:02:56.620Z,9.09
2023-01-01T01:03:28.790Z,8.88
2023-01-01T01:04:01.421Z,8.88
2023-01-01T01:04:32.587Z,8.88
2023-01-01T01:05:04.992Z,8.99
2023-01-01T01:05:36.645Z,8.99
2023-01-01T01:06:08.621Z,8.99
2023-01-01T01:06:36.316Z,8.99
2023-01-01T01:06:56.599Z,9.20
2023-01-01T01:07:28.637Z,9.20
2023-01-01T01:08:00.713Z,9.20
2023-01-01T01:08:32.634Z,9.09
2023-01-01T01:09:04.630Z,8.88
2023-01-01T01:09:36.637Z,8.88
2023-01-01T01:10:08.944Z,8.88
2023-01-01T01:10:36.375Z,8.99
2023-01-01T01:10:56.854Z,8.99
2023-01-01T01:11:28.582Z,8.99
2023-01-01T01:12:17.456Z,8.99
2023-01-01T01:12:32.608Z,9.20
2023-01-01T01:13:04.628Z,9.20
2023-01-01T01:13:37.585Z,9.20
2023-01-01T01:14:08.656Z,9.09
2023-01-01T01:14:36.320Z,9.09
2023-01-01T01:14:56.639Z,9.09
2023-01-01T01:15:29.125Z,9.09
2023-01-01T01:16:00.880Z,9.09
2023-01-01T01:16:32.687Z,9.09
2023-01-01T01:17:04.670Z,9.09
2023-01-01T01:17:36.643Z,9.09
2023-01-01T01:18:08.654Z,9.09
2023-01-01T01:18:36.344Z,9.09
2023-01-01T01:18:57.221Z,8.98
2023-01-01T01:19:28.591Z,8.98
2023-01-01T01:20:03.263Z,8.98
2023-01-01T01:20:32.649Z,8.98
2023-01-01T01:21:04.645Z,9.09
2023-01-01T01:21:36.769Z,9.09
2023-01-01T01:22:08.588Z,8.88
2023-01-01T01:22:36.299Z,9.09
2023-01-01T01:22:56.603Z,9.09
2023-01-01T01:23:28.618Z,9.09
2023-01-01T01:24:00.644Z,9.09
2023-01-01T01:24:32.607Z,9.09
2023-01-01T01:25:04.932Z,9.20
2023-01-01T01:25:36.674Z,9.09
2023-01-01T01:26:08.666Z,9.09
2023-01-01T01:26:36.315Z,9.09
2023-01-01T01:26:56.594Z,9.09
2023-01-01T01:27:28.663Z,9.20
2023-01-01T01:28:00.641Z,9.20
2023-01-01T01:28:32.608Z,9.20
2023-01-01T01:29:04.616Z,9.20
2023-01-01T01:29:37.375Z,9.20
2023-01-01T01:30:11.065Z,9.20
2023-01-01T01:30:36.446Z,9.20
2023-01-01T01:30:56.946Z,9.09
2023-01-01T01:31:28.653Z,9.09
2023-01-01T01:32:00.705Z,9.09
2023-01-01T01:32:32.908Z,9.09
2023-01-01T01:33:04.639Z,9.09
2023-01-01T01:33:36.703Z,9.09
2023-01-01T01:34:13.658Z,9.09
2023-01-01T01:34:36.335Z,9.09
2023-01-01T01:34:56.586Z,9.09
2023-01-01T01:35:29.952Z,9.09
2023-01-01T01:36:00.708Z,9.09
2023-01-01T01:36:32.589Z,9.09
2023-01-01T01:37:04.601Z,9.09
2023-01-01T01:37:37.003Z,9.09
2023-01-01T01:38:08.585Z,9.09
2023-01-01T01:38:36.683Z,9.09
2023-01-01T01:38:56.561Z,9.20
2023-01-01T01:39:28.606Z,9.20
2023-01-01T01:40:02.555Z,9.20
2023-01-01T01:40:32.796Z,9.20
2023-01-01T01:41:04.798Z,9.20
2023-01-01T01:41:36.813Z,9.09
2023-01-01T01:42:08.805Z,9.30
2023-01-01T01:42:36.386Z,9.30
2023-01-01T01:42:56.634Z,9.30
2023-01-01T01:43:28.757Z,9.19
2023-01-01T01:44:01.636Z,9.19
2023-01-01T01:44:32.617Z,9.19
2023-01-01T01:45:07.552Z,9.19
2023-01-01T01:45:37.176Z,8.98
2023-01-01T01:46:09.014Z,8.98
2023-01-01T01:46:36.528Z,8.98
2023-01-01T01:46:56.878Z,9.19
2023-01-01T01:47:28.726Z,9.19
2023-01-01T01:48:00.855Z,9.19
2023-01-01T01:48:32.846Z,9.19
2023-01-01T01:49:04.825Z,9.19
2023-01-01T01:49:37.079Z,9.19
2023-01-01T01:50:09.205Z,9.19
2023-01-01T01:50:36.715Z,9.19
2023-01-01T01:50:56.976Z,9.08
2023-01-01T01:51:29.741Z,9.08
2023-01-01T01:52:00.771Z,9.08
2023-01-01T01:52:32.706Z,9.08
2023-01-01T01:53:04.626Z,8.87
2023-01-01T01:53:36.787Z,9.08
2023-01-01T01:54:08.633Z,9.08
2023-01-01T01:54:36.809Z,9.08
2023-01-01T01:54:56.670Z,9.08
2023-01-01T01:55:28.893Z,9.08
2023-01-01T01:56:00.696Z,9.08
2023-01-01T01:56:32.621Z,9.08
2023-01-01T01:57:04.692Z,9.08
2023-01-01T01:57:36.886Z,9.08
2023-01-01T01:58:08.622Z,9.08
2023-01-01T01:58:36.425Z,9.08
2023-01-01T01:58:56.673Z,9.08
2023-01-01T01:59:28.684Z,9.08
2023-01-01T02:00:10.358Z,9.08
2023-01-01T02:00:32.684Z,9.08
2023-01-01T02:01:05.652Z,9.08
2023-01-01T02:01:36.917Z,9.08
2023-01-01T02:02:08.731Z,9.08
2023-01-01T02:02:36.707Z,9.08
2023-01-01T02:02:56.742Z,9.08
2023-01-01T02:03:28.699Z,9.08
2023-01-01T02:04:00.752Z,9.04
2023-01-01T02:04:32.636Z,9.04
2023-01-01T02:05:04.933Z,9.04
2023-01-01T02:05:36.839Z,9.04
2023-01-01T02:06:08.675Z,9.04
2023-01-01T02:06:36.400Z,9.04
2023-01-01T02:06:56.611Z,9.04
2023-01-01T02:07:29.560Z,9.04
2023-01-01T02:08:00.721Z,9.04
2023-01-01T02:08:32.628Z,9.08
2023-01-01T02:09:04.681Z,9.08
2023-01-01T02:09:36.844Z,9.08
2023-01-01T02:10:08.986Z,9.08
2023-01-01T02:10:36.898Z,9.08
2023-01-01T02:10:56.960Z,9.08
2023-01-01T02:11:28.666Z,9.08
2023-01-01T02:12:00.743Z,9.08
2023-01-01T02:12:32.655Z,9.08
2023-01-01T02:13:04.615Z,9.08
2023-01-01T02:13:36.861Z,9.08
2023-01-01T02:14:08.659Z,9.08
2023-01-01T02:14:36.444Z,9.08
2023-01-01T02:14:56.645Z,9.08
2023-01-01T02:15:29.189Z,8.87
2023-01-01T02:16:00.922Z,9.08
2023-01-01T02:16:32.583Z,9.08
2023-01-01T02:17:05.417Z,9.08
2023-01-01T02:17:39.348Z,9.08
2023-01-01T02:18:08.611Z,9.08
2023-01-01T02:18:36.426Z,9.08
2023-01-01T02:18:56.651Z,9.08
2023-01-01T02:19:28.665Z,9.08
2023-01-01T02:20:02.570Z,9.08
2023-01-01T02:20:32.635Z,9.08
2023-01-01T02:21:04.629Z,9.08
2023-01-01T02:21:36.837Z,9.08
2023-01-01T02:22:08.628Z,9.08
2023-01-01T02:22:36.316Z,9.08
2023-01-01T02:23:02.254Z,9.08
2023-01-01T02:23:29.376Z,9.08
2023-01-01T02:24:00.687Z,9.08
2023-01-01T02:24:32.617Z,9.08
2023-01-01T02:25:04.920Z,9.08
2023-01-01T02:25:36.880Z,9.08
2023-01-01T02:26:08.667Z,9.08
2023-01-01T02:26:36.919Z,9.08
2023-01-01T02:26:56.625Z,8.87
2023-01-01T02:27:28.625Z,8.87
2023-01-01T02:28:00.665Z,8.87
2023-01-01T02:28:32.628Z,8.98
2023-01-01T02:29:04.621Z,8.98
2023-01-01T02:29:36.854Z,8.98
2023-01-01T02:30:11.418Z,8.98
2023-01-01T02:30:36.439Z,8.98
2023-01-01T02:30:56.954Z,8.98
2023-01-01T02:31:28.638Z,8.98
2023-01-01T02:32:00.642Z,9.09
2023-01-01T02:32:32.615Z,9.09
2023-01-01T02:33:05.387Z,8.98
2023-01-01T02:33:36.884Z,8.98
2023-01-01T02:34:08.671Z,8.98
2023-01-01T02:34:36.441Z,8.98
2023-01-01T02:34:56.763Z,8.98
2023-01-01T02:35:28.929Z,8.98
2023-01-01T02:36:00.710Z,8.98
2023-01-01T02:36:32.577Z,8.98
2023-01-01T02:37:04.595Z,8.98
2023-01-01T02:37:36.866Z,8.98
2023-01-01T02:38:08.605Z,8.98
2023-01-01T02:38:36.295Z,9.09
2023-01-01T02:38:56.573Z,8.88
2023-01-01T02:39:29.435Z,8.88
2023-01-01T02:40:01.008Z,8.99
2023-01-01T02:40:33.246Z,8.99
2023-01-01T02:41:04.543Z,8.99
2023-01-01T02:41:36.911Z,8.99
2023-01-01T02:42:08.601Z,8.99
2023-01-01T02:42:36.837Z,8.99
2023-01-01T02:42:56.549Z,8.99
2023-01-01T02:43:28.588Z,9.20
2023-01-01T02:44:32.582Z,9.20
2023-01-01T02:45:05.118Z,8.99
2023-01-01T02:45:36.937Z,8.99
2023-01-01T02:46:08.822Z,9.20
2023-01-01T02:46:36.313Z,9.20
2023-01-01T02:46:56.568Z,9.20
2023-01-01T02:47:28.567Z,9.20
2023-01-01T02:48:00.619Z,9.20
2023-01-01T02:48:32.585Z,9.09
2023-01-01T02:49:10.255Z,9.09
2023-01-01T02:49:36.855Z,8.98
2023-01-01T02:50:08.869Z,8.98
2023-01-01T02:50:36.366Z,8.98
2023-01-01T02:50:56.850Z,8.98
2023-01-01T02:51:28.562Z,8.98
2023-01-01T02:52:00.633Z,8.98
2023-01-01T02:52:32.581Z,8.98
2023-01-01T02:53:04.563Z,8.98
2023-01-01T02:53:36.814Z,9.09
2023-01-01T02:54:08.604Z,9.09
2023-01-01T02:54:36.367Z,9.09
2023-01-01T02:54:56.557Z,9.09
2023-01-01T02:55:29.678Z,9.09
2023-01-01T02:56:00.574Z,9.09
2023-01-01T02:56:32.568Z,9.09
2023-01-01T02:57:04.551Z,9.09
2023-01-01T02:57:36.895Z,9.09
2023-01-01T02:58:08.554Z,9.09
2023-01-01T02:58:37.547Z,8.88
2023-01-01T02:58:56.569Z,9.09
2023-01-01T02:59:28.587Z,9.20
2023-01-01T03:00:02.886Z,9.20
2023-01-01T03:00:32.582Z,9.20
2023-01-01T03:01:04.597Z,9.20
2023-01-01T03:01:37.003Z,9.20
2023-01-01T03:02:08.722Z,9.09
2023-01-01T03:02:36.500Z,9.09
2023-01-01T03:02:56.714Z,9.09
2023-01-01T03:03:28.621Z,8.98
2023-01-01T03:04:00.597Z,8.98
2023-01-01T03:04:32.539Z,8.98
2023-01-01T03:05:05.536Z,8.98
2023-01-01T03:05:36.907Z,8.98
2023-01-01T03:06:08.879Z,8.98
2023-01-01T03:06:36.297Z,8.98
2023-01-01T03:06:56.554Z,8.98
2023-01-01T03:07:28.560Z,8.98
2023-01-01T03:08:00.624Z,8.98
2023-01-01T03:08:32.558Z,8.98
2023-01-01T03:09:04.611Z,8.98
2023-01-01T03:09:36.905Z,8.98
2023-01-01T03:10:08.896Z,8.98
2023-01-01T03:10:36.358Z,8.98
2023-01-01T03:10:56.791Z,8.98
2023-01-01T03:11:29.233Z,8.98
2023-01-01T03:12:00.626Z,8.98
2023-01-01T03:12:32.521Z,8.98
2023-01-01T03:13:04.577Z,8.98
2023-01-01T03:13:37.038Z,8.98
2023-01-01T03:14:08.567Z,8.98
2023-01-01T03:14:36.991Z,8.98
2023-01-01T03:14:56.551Z,8.98
2023-01-01T03:15:29.116Z,8.98
2023-01-01T03:16:00.881Z,8.98
2023-01-01T03:16:32.553Z,9.09
2023-01-01T03:17:04.589Z,9.09
2023-01-01T03:17:36.914Z,9.09
2023-01-01T03:18:08.604Z,9.09
2023-01-01T03:18:36.272Z,9.09
2023-01-01T03:18:56.536Z,9.09
2023-01-01T03:19:28.606Z,8.98
2023-01-01T03:20:02.352Z,8.98
2023-01-01T03:20:32.526Z,8.98
2023-01-01T03:21:05.361Z,8.98
2023-01-01T03:21:36.920Z,9.09
2023-01-01T03:22:08.549Z,9.09
2023-01-01T03:22:56.688Z,9.09
2023-01-01T03:23:28.516Z,9.09
2023-01-01T03:24:00.591Z,8.98
2023-01-01T03:24:32.594Z,8.98
2023-01-01T03:25:05.028Z,8.98
2023-01-01T03:25:36.907Z,9.09
2023-01-01T03:26:08.592Z,9.09
2023-01-01T03:26:36.295Z,9.09
2023-01-01T03:26:56.548Z,9.09
2023-01-01T03:27:29.299Z,9.09
2023-01-01T03:28:00.572Z,9.09
2023-01-01T03:28:32.547Z,9.09
2023-01-01T03:29:04.580Z,9.09
2023-01-01T03:29:36.925Z,9.09
2023-01-01T03:30:10.667Z,9.09
2023-01-01T03:30:37.006Z,9.09
2023-01-01T03:30:56.916Z,9.09
2023-01-01T03:31:28.574Z,9.09
2023-01-01T03:32:00.602Z,9.09
2023-01-01T03:32:32.609Z,8.98
2023-01-01T03:33:04.605Z,8.98
2023-01-01T03:33:36.931Z,8.98
2023-01-01T03:34:08.556Z,8.98
2023-01-01T03:34:36.279Z,8.98
2023-01-01T03:34:56.583Z,8.98
2023-01-01T03:35:29.611Z,8.98
2023-01-01T03:36:00.620Z,8.98
2023-01-01T03:36:32.544Z,8.98
2023-01-01T03:37:04.544Z,8.98
2023-01-01T03:37:36.951Z,8.98
2023-01-01T03:38:08.541Z,8.98
2023-01-01T03:38:36.994Z,8.98
2023-01-01T03:38:56.557Z,8.98
2023-01-01T03:39:28.559Z,8.98
2023-01-01T03:40:02.442Z,8.98
2023-01-01T03:40:32.541Z,8.98
2023-01-01T03:41:04.583Z,8.98
2023-01-01T03:41:37.234Z,8.98
2023-01-01T03:42:08.639Z,8.98
2023-01-01T03:42:36.271Z,8.98
2023-01-01T03:42:56.526Z,9.09
2023-01-01T03:43:28.530Z,9.09
2023-01-01T03:44:00.592Z,8.98
2023-01-01T03:44:32.522Z,8.98
2023-01-01T03:45:05.090Z,8.98
2023-01-01T03:45:36.992Z,8.98
2023-01-01T03:46:08.752Z,8.98
2023-01-01T03:46:36.381Z,8.98
2023-01-01T03:46:56.622Z,8.98
2023-01-01T03:47:28.549Z,8.98
2023-01-01T03:48:01.311Z,8.98
2023-01-01T03:48:32.640Z,8.98
2023-01-01T03:49:04.711Z,8.98
2023-01-01T03:49:36.990Z,8.98
2023-01-01T03:50:08.857Z,8.98
2023-01-01T03:50:35.955Z,8.98
2023-01-01T03:50:56.815Z,8.98
2023-01-01T03:51:28.542Z,8.98
2023-01-01T03:52:00.601Z,8.98
2023-01-01T03:52:32.494Z,8.98
2023-01-01T03:53:04.532Z,8.98
2023-01-01T03:53:36.961Z,8.98
2023-01-01T03:54:08.573Z,8.98
2023-01-01T03:54:36.274Z,8.98
2023-01-01T03:54:59.123Z,8.98
2023-01-01T03:55:28.779Z,8.98
2023-01-01T03:56:00.643Z,8.98
2023-01-01T03:56:32.542Z,8.98
2023-01-01T03:57:04.589Z,8.98
2023-01-01T03:57:37.316Z,8.77
2023-01-01T03:58:08.562Z,8.98
2023-01-01T03:58:36.276Z,8.77
2023-01-01T03:58:56.540Z,8.77
2023-01-01T03:59:28.543Z,8.88
2023-01-01T04:00:02.874Z,8.88
2023-01-01T04:00:32.534Z,9.09
2023-01-01T04:01:04.666Z,9.09
2023-01-01T04:01:37.063Z,9.09
2023-01-01T04:02:08.706Z,9.09
2023-01-01T04:02:35.985Z,8.98
2023-01-01T04:02:56.596Z,8.98
2023-01-01T04:03:28.655Z,8.98
2023-01-01T04:04:02.308Z,8.98
2023-01-01T04:04:32.571Z,8.98
2023-01-01T04:05:04.865Z,8.98
2023-01-01T04:05:36.991Z,8.98
2023-01-01T04:06:08.539Z,8.98
2023-01-01T04:06:36.147Z,8.98
2023-01-01T04:06:56.542Z,8.98
2023-01-01T04:07:28.507Z,8.98
2023-01-01T04:08:00.564Z,8.98
2023-01-01T04:08:32.520Z,8.77
2023-01-01T04:09:04.552Z,8.77
2023-01-01T04:09:36.997Z,8.88
2023-01-01T04:10:08.826Z,8.88
2023-01-01T04:10:35.932Z,8.88
2023-01-01T04:10:56.821Z,8.99
2023-01-01T04:11:28.554Z,9.20
2023-01-01T04:12:00.633Z,9.20
2023-01-01T04:12:32.484Z,9.09
2023-01-01T04:13:04.536Z,9.09
2023-01-01T04:13:38.124Z,8.98
2023-01-01T04:14:08.565Z,8.98
2023-01-01T04:14:35.849Z,8.98
2023-01-01T04:14:56.507Z,8.98
2023-01-01T04:15:29.065Z,8.98
2023-01-01T04:16:00.719Z,8.98
2023-01-01T04:16:39.214Z,8.98
2023-01-01T04:17:04.528Z,8.98
2023-01-01T04:17:36.939Z,8.98
2023-01-01T04:18:08.546Z,8.98
2023-01-01T04:18:36.373Z,8.98
2023-01-01T04:18:56.522Z,8.87
2023-01-01T04:19:28.576Z,8.87
2023-01-01T04:20:02.538Z,8.87
2023-01-01T04:20:38.356Z,8.87
2023-01-01T04:21:20.549Z,8.87
2023-01-01T04:21:42.338Z,8.87
2023-01-01T04:22:08.545Z,8.87
2023-01-01T04:22:36.624Z,8.87
2023-01-01T04:22:57.232Z,8.87
2023-01-01T04:23:28.516Z,8.87
2023-01-01T04:24:00.553Z,8.87
2023-01-01T04:24:32.491Z,8.87
2023-01-01T04:25:04.829Z,8.87
2023-01-01T04:25:36.954Z,8.87
2023-01-01T04:26:09.337Z,8.87
2023-01-01T04:26:35.885Z,8.87
2023-01-01T04:26:56.535Z,8.87
2023-01-01T04:27:28.511Z,8.87
2023-01-01T04:28:00.617Z,8.83
2023-01-01T04:28:38.328Z,8.83
2023-01-01T04:29:04.539Z,8.83
2023-01-01T04:29:37.309Z,8.83
2023-01-01T04:30:25.049Z,8.83
2023-01-01T04:31:12.564Z,8.83
2023-01-01T04:31:35.917Z,8.87
2023-01-01T04:32:00.546Z,8.87
2023-01-01T04:32:32.503Z,8.87
2023-01-01T04:33:04.513Z,8.66
2023-01-01T04:33:36.977Z,8.66
2023-01-01T04:34:08.516Z,8.66
2023-01-01T04:34:35.869Z,8.66
2023-01-01T04:34:56.553Z,8.66
2023-01-01T04:35:29.499Z,8.66
2023-01-01T04:36:00.566Z,8.77
2023-01-01T04:36:38.360Z,8.77
2023-01-01T04:37:08.296Z,8.77
2023-01-01T04:37:36.993Z,8.77
2023-01-01T04:38:08.553Z,8.98
2023-01-01T04:38:36.953Z,8.98
2023-01-01T04:38:56.525Z,8.66
2023-01-01T04:39:28.535Z,8.87
2023-01-01T04:40:02.314Z,8.87
2023-01-01T04:40:32.564Z,8.87
2023-01-01T04:41:04.590Z,8.87
2023-01-01T04:41:37.197Z,8.83
2023-01-01T04:42:24.807Z,8.83
2023-01-01T04:42:41.982Z,8.83
2023-01-01T04:43:12.633Z,8.83
2023-01-01T04:43:35.839Z,8.83
2023-01-01T04:44:00.570Z,8.93
2023-01-01T04:44:32.523Z,8.72
2023-01-01T04:45:05.077Z,8.72
2023-01-01T04:45:36.991Z,8.72
2023-01-01T04:46:08.776Z,8.72
2023-01-01T04:46:35.867Z,8.72
2023-01-01T04:47:00.095Z,8.72
2023-01-01T04:47:28.512Z,8.72
2023-01-01T04:48:01.331Z,8.72
2023-01-01T04:48:32.519Z,8.83
2023-01-01T04:49:04.529Z,8.83
2023-01-01T04:49:36.946Z,8.83
2023-01-01T04:50:24.788Z,8.72
2023-01-01T04:50:56.536Z,8.72
2023-01-01T04:51:30.407Z,8.72
2023-01-01T04:52:00.723Z,8.72
2023-01-01T04:52:32.595Z,8.72
2023-01-01T04:53:04.514Z,8.72
2023-01-01T04:53:36.968Z,8.72
2023-01-01T04:54:08.578Z,8.72
2023-01-01T04:54:37.057Z,8.72
2023-01-01T04:54:56.520Z,8.72
2023-01-01T04:55:28.801Z,8.93
2023-01-01T04:56:16.573Z,8.83
2023-01-01T04:56:38.360Z,8.83
2023-01-01T04:57:04.498Z,8.83
2023-01-01T04:57:43.044Z,8.83
2023-01-01T04:58:08.525Z,8.61
2023-01-01T04:58:35.911Z,8.61
2023-01-01T04:58:56.556Z,8.83
2023-01-01T04:59:28.529Z,8.83
2023-01-01T05:00:02.807Z,8.71
2023-01-01T05:00:32.550Z,8.50
2023-01-01T05:01:04.703Z,8.50
2023-01-01T05:01:37.071Z,8.50
2023-01-01T05:02:08.058Z,8.61
2023-01-01T05:02:35.503Z,8.61
2023-01-01T05:02:56.069Z,8.61
2023-01-01T05:03:28.040Z,8.61
2023-01-01T05:04:16.823Z,8.61
2023-01-01T05:04:37.823Z,8.61
2023-01-01T05:05:04.291Z,8.61
2023-01-01T05:05:36.106Z,8.61
2023-01-01T05:06:08.643Z,8.61
2023-01-01T05:06:36.616Z,8.61
2023-01-01T05:06:56.745Z,8.61
2023-01-01T05:07:29.354Z,8.50
2023-01-01T05:08:00.548Z,8.50
2023-01-01T05:08:33.060Z,8.50
2023-01-01T05:09:04.505Z,8.50
2023-01-01T05:09:36.580Z,8.50
2023-01-01T05:10:24.772Z,8.29
2023-01-01T05:10:42.506Z,8.29
2023-01-01T05:11:36.079Z,8.50
2023-01-01T05:12:00.645Z,8.61
2023-01-01T05:12:33.053Z,8.61
2023-01-01T05:13:04.517Z,8.61
2023-01-01T05:13:36.539Z,8.61
2023-01-01T05:14:08.551Z,8.61
2023-01-01T05:14:35.854Z,8.61
2023-01-01T05:15:13.032Z,8.61
2023-01-01T05:15:35.896Z,8.61
2023-01-01T05:16:00.735Z,8.40
2023-01-01T05:16:32.984Z,8.40
2023-01-01T05:17:05.423Z,8.40
2023-01-01T05:17:42.325Z,8.40
2023-01-01T05:18:08.551Z,8.40
2023-01-01T05:18:35.846Z,8.40
2023-01-01T05:18:56.570Z,8.40
2023-01-01T05:19:35.821Z,8.40
2023-01-01T05:20:02.748Z,8.40
2023-01-01T05:20:38.344Z,8.40
2023-01-01T05:21:04.483Z,8.61
2023-01-01T05:21:36.572Z,8.40
2023-01-01T05:22:35.833Z,8.50
2023-01-01T05:22:56.563Z,8.29
2023-01-01T05:23:36.659Z,8.29
2023-01-01T05:24:00.579Z,8.29
2023-01-01T05:24:32.986Z,8.29
2023-01-01T05:25:04.775Z,8.40
2023-01-01T05:25:36.563Z,8.40
2023-01-01T05:26:08.544Z,8.51
2023-01-01T05:26:35.873Z,8.51
2023-01-01T05:26:56.554Z,8.51
2023-01-01T05:27:28.497Z,8.40
2023-01-01T05:28:00.568Z,8.40
2023-01-01T05:28:32.916Z,8.40
2023-01-01T05:29:20.527Z,8.40
2023-01-01T05:29:42.318Z,8.40
2023-01-01T05:30:11.612Z,8.40
2023-01-01T05:30:35.822Z,8.40
2023-01-01T05:31:12.524Z,8.40
2023-01-01T05:31:35.896Z,8.40
2023-01-01T05:32:38.321Z,8.40
2023-01-01T05:33:04.657Z,8.40
2023-01-01T05:33:36.541Z,8.19
2023-01-01T05:34:08.557Z,8.19
2023-01-01T05:34:56.572Z,8.19
2023-01-01T05:35:28.778Z,8.30
2023-01-01T05:36:00.548Z,8.30
2023-01-01T05:36:38.626Z,8.30
2023-01-01T05:37:04.485Z,8.51
2023-01-01T05:37:36.514Z,8.30
2023-01-01T05:38:08.481Z,8.51
2023-01-01T05:38:35.832Z,8.40
2023-01-01T05:38:57.225Z,8.40
2023-01-01T05:39:35.808Z,8.40
2023-01-01T05:40:02.930Z,8.40
2023-01-01T05:40:38.331Z,8.40
2023-01-01T05:41:04.511Z,8.19
2023-01-01T05:41:36.872Z,8.19
2023-01-01T05:42:09.171Z,8.29
2023-01-01T05:42:35.850Z,8.40
2023-01-01T05:42:56.581Z,8.40
2023-01-01T05:43:28.505Z,8.40
2023-01-01T05:44:00.538Z,8.29
2023-01-01T05:44:32.941Z,8.29
2023-01-01T05:45:05.016Z,8.29
2023-01-01T05:45:36.620Z,8.08
2023-01-01T05:46:08.743Z,8.08
2023-01-01T05:46:35.824Z,8.08
2023-01-01T05:46:56.610Z,8.08
2023-01-01T05:47:30.068Z,8.29
2023-01-01T05:48:00.553Z,8.08
2023-01-01T05:48:33.626Z,8.29
2023-01-01T05:49:04.611Z,8.29
2023-01-01T05:49:36.550Z,8.29
2023-01-01T05:50:35.822Z,8.08
2023-01-01T05:50:56.861Z,8.08
2023-01-01T05:51:28.529Z,8.08
2023-01-01T05:52:00.512Z,8.29
2023-01-01T05:52:32.946Z,8.08
2023-01-01T05:53:04.493Z,8.08
2023-01-01T05:53:42.309Z,8.08
2023-01-01T05:54:35.804Z,8.08
2023-01-01T05:54:57.267Z,8.29
2023-01-01T05:55:28.815Z,8.08
2023-01-01T05:56:00.555Z,8.08
2023-01-01T05:56:33.047Z,8.08
2023-01-01T05:57:04.535Z,8.08
2023-01-01T05:57:36.555Z,8.08
2023-01-01T05:58:10.130Z,8.08
2023-01-01T05:58:35.821Z,8.08
2023-01-01T05:58:56.654Z,8.08
2023-01-01T05:59:28.498Z,8.08
2023-01-01T06:00:03.164Z,8.08
2023-01-01T06:00:32.940Z,8.08
2023-01-01T06:01:04.506Z,8.08
2023-01-01T06:01:43.405Z,8.08
2023-01-01T06:02:08.652Z,8.08
2023-01-01T06:02:35.835Z,8.08
2023-01-01T06:02:56.692Z,8.08
2023-01-01T06:03:28.544Z,8.08
2023-01-01T06:04:00.626Z,8.08
2023-01-01T06:04:33.412Z,8.08
2023-01-01T06:05:04.823Z,8.08
2023-01-01T06:05:36.535Z,7.97
2023-01-01T06:06:24.513Z,7.97
2023-01-01T06:06:56.531Z,7.97
2023-01-01T06:07:28.548Z,7.97
2023-01-01T06:08:16.561Z,7.97
2023-01-01T06:08:38.335Z,7.97
2023-01-01T06:09:04.721Z,7.97
2023-01-01T06:09:36.532Z,7.97
2023-01-01T06:10:08.740Z,7.97
2023-01-01T06:10:35.839Z,7.97
2023-01-01T06:10:57.522Z,7.97
2023-01-01T06:11:35.839Z,7.97
2023-01-01T06:12:00.540Z,8.18
2023-01-01T06:12:32.943Z,8.18
2023-01-01T06:13:08.034Z,7.97
2023-01-01T06:13:36.563Z,8.18
2023-01-01T06:14:09.391Z,8.14
2023-01-01T06:14:35.825Z,8.14
2023-01-01T06:14:56.596Z,8.14
2023-01-01T06:15:29.031Z,8.14
2023-01-01T06:16:00.671Z,8.14
2023-01-01T06:16:33.023Z,8.03
2023-01-01T06:17:04.523Z,8.03
2023-01-01T06:17:36.538Z,8.03
2023-01-01T06:18:08.493Z,8.03
2023-01-01T06:18:35.791Z,8.03
2023-01-01T06:18:56.576Z,8.03
2023-01-01T06:19:28.486Z,8.03
2023-01-01T06:20:00.929Z,8.03
2023-01-01T06:20:33.359Z,8.03
2023-01-01T06:21:04.792Z,8.03
2023-01-01T06:21:42.313Z,8.03
2023-01-01T06:22:24.507Z,8.03
2023-01-01T06:22:41.642Z,8.03
2023-01-01T06:23:12.519Z,8.03
2023-01-01T06:23:36.815Z,8.03
2023-01-01T06:24:00.534Z,8.03
2023-01-01T06:24:38.808Z,8.03
2023-01-01T06:25:04.776Z,8.03
2023-01-01T06:25:36.512Z,8.03
2023-01-01T06:26:24.580Z,8.03
2023-01-01T06:26:42.445Z,8.03
2023-01-01T06:27:12.521Z,8.03
2023-01-01T06:27:35.823Z,8.03
2023-01-01T06:28:00.569Z,8.03
2023-01-01T06:28:32.958Z,8.03
2023-01-01T06:29:04.489Z,8.03
2023-01-01T06:29:36.583Z,8.03
2023-01-01T06:30:10.932Z,8.03
2023-01-01T06:30:35.859Z,8.03
2023-01-01T06:30:56.953Z,8.03
2023-01-01T06:31:28.523Z,8.03
2023-01-01T06:32:00.557Z,8.03
2023-01-01T06:32:33.165Z,8.03
2023-01-01T06:33:04.506Z,8.14
2023-01-01T06:33:36.521Z,8.14
2023-01-01T06:34:08.479Z,8.14
2023-01-01T06:34:35.846Z,8.14
2023-01-01T06:34:56.596Z,8.14
2023-01-01T06:35:28.794Z,8.14
2023-01-01T06:36:01.501Z,8.03
2023-01-01T06:36:32.971Z,8.03
2023-01-01T06:37:07.061Z,8.03
2023-01-01T06:37:36.555Z,8.03
2023-01-01T06:38:08.519Z,8.03
2023-01-01T06:38:35.832Z,8.03
2023-01-01T06:38:57.001Z,8.03
2023-01-01T06:39:33.317Z,8.03
2023-01-01T06:40:00.967Z,8.03
2023-01-01T06:40:33.109Z,8.03
2023-01-01T06:41:04.476Z,8.03
2023-01-01T06:41:36.511Z,8.03
2023-01-01T06:42:29.004Z,8.03
2023-01-01T06:42:42.323Z,8.24
2023-01-01T06:43:12.458Z,8.03
2023-01-01T06:43:35.818Z,8.03